Etusivu
METAR-TAF:

METAR-TAF

Lentoasemat :

Ngaoundéré, Kamerun

Leveyspiiri: 07-21N, Pituuspiiri: 013-34E, korkeus merenpinnasta: 1114 m

Tämänhetkinen sää

Tämä raportti tehtiin 1 tunti ja 29 minuuttia sitten, kello 03.00 UTC
tyyntä
Lämpötila 19°C
Kosteus 94%
Ilmanpaine 1016 hPa
Näkyvyys 10 km tai enemmän
Muutamia pilviä 1600 ft:n korkeudessa
Muutamia pilviä 2000 ft:n korkeudessa, Cumulonimbus.

METAR: FKKN 250300Z 00000KT 9999 FEW016 FEW020CB 19/18 Q1016

Aika: 05:29 (04:29 UTC)


TAF: puuttuu

Säähavainnot ja -ennusteet yli 4000 lentoasemalta (METAR- ja TAF-raportit).

Käytössä olevat sääasemat on merkitty karttaan keltaisilla ja punaisilla pisteillä.

Aseta hiiri pisteen päälle nähdäksesi sääaseman nimen.

Klikkaa sitten nähdäksesi säähavainnot ja -ennusteet.

Kartan vaihtaminen: klikkaa mustalla rastilla varustettuja vihreitä pisteitä, niin voit zoomata sisään; viivalla varustettua vihreää pistettä, niin voit zoomata ulos tai vihreitä nuolia, niin pääset viereisille kartoille.


METAR-TAF: